Garanhuns, Brazil
Current Conditions -  °F | °C
As of 9:00 PM on Tuesday 25 Nov 2014 (Local Time) from SBMO Reporting Station
Few Clouds Few Clouds  
Wind Chill: 77°   Ceiling: Unl
Heat Index: 78°   Visibility: 6mi
Dew Point: 73°   Wind: 5mph
Humidity: 89%   Direction: 70°ENE
Pressure: 29.94"   Gusts: NA
Location:  8.89°S, 36.5°W
Report Text: SBMO 260000Z 07004KT 9999 FEW020 25/23 Q1014
Loading
Personal Weather Stations






























Interactive Weather Map New forecast layout! Learn more

10-Day Weather Forecast

Advertisements
Track Severe Weather on mobile